Latest Weather Observations for Portland Airport

IDV60801

Issued at 2:35 am EST Wednesday 3 September 2014 (issued every 30 minutes, with the page automatically refreshed every 10 minutes)

About weather observations | Map of weather stations | Latest weather observations for VIC | Other Formats
Station Details ID: 090171 Name: CASHMORE AIRPORT Lat: -38.31 Lon: 141.47 Height: 80.9 m
Data from the previous 72 hours. | See also: Recent months at Portland Airport
Date/Time
EST
Temp
°C
App
Temp
°C
Dew
Point
Rel
Hum
%
Delta-T
°C
Wind Press
QNH
hPa
Press
MSL
hPa
Rain
since 9 am
mm
Dir
 
Spd
km/h
Gust
km/h
Spd
kts
Gust
kts
03/02:30am 7.6 5.0 3.3 74 1.8 SE 6 9 3 5 1024.9 1025.0 0.0
03/02:00am 9.0 6.4 4.0 71 2.2 SE 7 11 4 6 1025.4 1025.4 0.0
03/01:30am 9.0 7.0 4.2 72 2.1 SSW 4 7 2 4 1025.5 1025.5 0.0
03/01:00am 8.2 6.3 4.8 79 1.5 SSE 4 11 2 6 1025.6 1025.6 0.0
03/12:30am 8.6 6.2 4.4 75 1.9 S 6 9 3 5 1025.7 1025.7 0.0
03/12:00am 8.4 6.1 4.6 77 1.7 S 6 7 3 4 1025.6 1025.6 0.0
 
Date/Time
EST
Temp
°C
App
Temp
°C
Dew
Point
Rel
Hum
%
Delta-T
°C
Wind Press
QNH
hPa
Press
MSL
hPa
Rain
since 9 am
mm
Dir
 
Spd
km/h
Gust
km/h
Spd
kts
Gust
kts
02/11:30pm 7.8 5.4 4.2 78 1.6 SW 6 7 3 4 1025.7 1025.7 0.0
02/11:00pm 6.7 4.1 3.3 79 1.4 SW 6 7 3 4 1025.9 1025.9 0.0
02/10:30pm 7.4 4.3 3.8 78 1.5 SW 9 11 5 6 1025.9 1025.9 0.0
02/10:00pm 8.5 5.4 3.6 71 2.1 SSW 9 11 5 6 1025.8 1025.8 0.0
02/09:30pm 9.8 6.7 3.8 66 2.6 SSW 9 15 5 8 1025.8 1025.8 0.0
02/09:00pm 8.8 8.0 6.4 85 1.1 CALM 0 0 0 0 1025.6 1025.6 0.0
02/08:30pm 9.3 6.7 6.2 81 1.4 SE 9 13 5 7 1025.5 1025.5 0.0
02/08:00pm 8.6 6.3 5.7 82 1.3 SSE 7 11 4 6 1025.3 1025.3 0.0
02/07:30pm 8.9 6.8 5.8 81 1.4 SSE 6 7 3 4 1025.3 1025.3 0.0
02/07:00pm 9.4 6.0 5.9 79 1.6 SSE 13 20 7 11 1025.0 1025.1 0.0
02/06:30pm 9.2 6.5 5.8 79 1.6 S 9 13 5 7 1024.7 1024.8 0.0
02/06:00pm 9.8 6.8 5.8 76 1.8 S 11 19 6 10 1024.4 1024.5 0.0
02/05:30pm 10.4 6.7 6.5 77 1.8 S 15 24 8 13 1024.2 1024.3 0.0
02/05:00pm 11.0 7.4 6.9 76 1.9 S 15 22 8 12 1023.9 1024.0 0.0
02/04:30pm 10.9 7.8 7.2 78 1.8 SSW 13 19 7 10 1023.5 1023.6 0.0
02/04:00pm 11.0 6.6 6.7 75 2.0 SSW 19 30 10 16 1023.4 1023.5 0.0
02/03:30pm 10.8 6.4 7.5 80 1.6 SSW 20 33 11 18 1023.3 1023.4 0.0
02/03:00pm 11.8 8.2 5.0 63 3.1 S 13 19 7 10 1023.1 1023.2 0.0
02/02:30pm 10.9 6.7 7.4 79 1.7 S 19 26 10 14 1023.1 1023.2 0.0
02/02:00pm 12.3 7.9 4.5 59 3.5 S 17 22 9 12 1023.0 1023.1 0.0
02/01:30pm 12.7 8.7 4.9 59 3.6 S 15 24 8 13 1023.0 1023.1 0.0
02/01:00pm 12.7 8.2 4.4 57 3.8 S 17 26 9 14 1023.0 1023.1 0.0
02/12:30pm 12.7 8.4 5.4 61 3.4 S 17 28 9 15 1023.0 1023.1 0.0
02/12:00pm 12.8 8.1 5.0 59 3.6 S 19 30 10 16 1023.1 1023.2 0.0
02/11:30am 13.1 8.9 5.8 61 3.5 S 17 24 9 13 1023.3 1023.4 0.0
02/11:00am 12.0 7.0 3.8 57 3.7 S 19 28 10 15 1023.2 1023.3 0.0
02/10:30am 12.1 7.2 3.9 57 3.7 S 19 28 10 15 1023.1 1023.2 0.0
02/10:00am 11.9 6.7 2.4 52 4.1 S 19 28 10 15 1023.0 1023.1 0.0
02/09:30am 10.9 5.9 3.7 61 3.2 S 19 30 10 16 1022.7 1022.8 0.0
02/09:00am 11.4 6.4 3.4 58 3.5 S 19 30 10 16 1022.4 1022.5 4.0
02/08:30am 10.7 6.0 3.0 59 3.4 S 17 28 9 15 1022.0 1022.1 4.0
02/08:00am 10.2 5.7 2.1 57 3.4 S 15 26 8 14 1021.4 1021.5 4.0
02/07:30am 9.9 5.2 3.0 62 3.0 S 17 30 9 16 1021.0 1021.1 4.0
02/07:00am 9.6 4.7 2.2 60 3.1 S 17 28 9 15 1020.5 1020.6 4.0
02/06:30am 9.5 4.7 2.4 61 3.0 S 17 30 9 16 1020.0 1020.1 4.0
02/06:00am 9.8 4.9 1.9 58 3.3 SSW 17 30 9 16 1019.6 1019.7 4.0
02/05:30am 9.8 5.2 3.5 65 2.8 S 17 26 9 14 1019.0 1019.1 4.0
02/05:00am 9.4 5.1 3.2 65 2.7 S 15 22 8 12 1018.5 1018.6 4.0
02/04:30am 9.6 5.0 3.8 67 2.5 S 17 24 9 13 1017.9 1018.0 4.0
02/04:00am 10.4 5.4 4.5 67 2.6 S 20 30 11 16 1017.6 1017.7 4.0
02/03:30am 10.2 6.4 5.6 73 2.1 S 15 24 8 13 1017.3 1017.3 4.0
02/03:00am 9.5 6.5 6.2 80 1.5 S 11 19 6 10 1017.0 1017.0 4.0
02/02:30am 7.8 6.3 6.6 92 0.6 S 4 7 2 4 1016.8 1016.8 3.8
02/02:00am 8.4 6.5 6.5 88 0.9 S 6 9 3 5 1016.6 1016.6 3.8
02/01:50am 8.7 6.8 6.7 87 0.9 S 6 11 3 6 1016.5 1016.5 3.8
02/01:38am 9.1 6.3 6.9 86 1.0 S 11 17 6 9 1016.6 1016.6 3.8
02/01:30am 9.2 6.3 6.5 83 1.3 S 11 19 6 10 1016.6 1016.6 3.6
02/01:00am 9.3 6.5 7.1 86 1.0 S 11 17 6 9 1016.3 1016.3 3.4
02/12:30am 8.9 5.9 6.2 83 1.2 S 11 17 6 9 1016.0 1016.0 3.4
02/12:12am 9.4 5.5 7.0 85 1.1 S 17 28 9 15 1015.9 1015.9 3.4
02/12:00am 9.3 6.1 6.9 85 1.1 SSW 13 20 7 11 1015.7 1015.7 3.4
 
Date/Time
EST
Temp
°C
App
Temp
°C
Dew
Point
Rel
Hum
%
Delta-T
°C
Wind Press
QNH
hPa
Press
MSL
hPa
Rain
since 9 am
mm
Dir
 
Spd
km/h
Gust
km/h
Spd
kts
Gust
kts
01/11:51pm 9.1 5.6 7.4 89 0.8 SW 15 20 8 11 1015.7 1015.7 3.0
01/11:30pm 8.9 6.2 7.2 89 0.8 SW 11 13 6 7 1015.4 1015.4 2.8
01/11:00pm 9.3 6.5 7.1 86 1.0 SSW 11 13 6 7 1015.3 1015.3 2.8
01/10:30pm 8.7 6.3 7.0 89 0.8 SW 9 15 5 8 1015.1 1015.1 2.8
01/10:00pm 8.9 6.5 7.2 89 0.8 SSW 9 15 5 8 1014.8 1014.8 2.8
01/09:30pm 8.4 6.0 6.9 90 0.7 SW 9 15 5 8 1014.6 1014.6 2.8
01/09:21pm 8.4 5.5 6.7 89 0.8 SW 11 15 6 8 1014.5 1014.5 2.6
01/09:00pm 8.5 4.3 7.3 92 0.6 SW 19 30 10 16 1014.4 1014.4 2.0
01/08:59pm 8.6 4.8 7.4 92 0.6 SW 17 28 9 15 1014.4 1014.4 2.0
01/08:30pm 7.3 4.7 6.2 93 0.5 W 9 11 5 6 1013.8 1013.8 1.4
01/08:00pm 8.2 5.7 6.5 89 0.8 SW 9 13 5 7 1013.7 1013.7 1.4
01/07:47pm 8.5 5.6 6.5 87 0.9 SW 11 17 6 9 1013.6 1013.6 1.4
01/07:32pm 8.7 4.6 6.2 84 1.2 SW 17 32 9 17 1013.4 1013.4 1.4
01/07:30pm 8.7 5.0 6.3 85 1.1 SW 15 32 8 17 1013.4 1013.4 1.4
01/07:12pm 8.8 6.4 6.9 88 0.9 SSW 9 15 5 8 1013.0 1013.0 1.0
01/07:00pm 9.0 5.5 7.3 89 0.8 SW 15 24 8 13 1013.0 1013.0 1.0
01/06:51pm 9.2 4.3 6.8 85 1.1 WSW 22 33 12 18 1012.9 1012.9 0.6
01/06:30pm 9.8 6.4 5.8 76 1.8 WSW 13 19 7 10 1012.5 1012.5 0.2
01/06:00pm 10.4 6.2 5.8 73 2.1 SW 17 24 9 13 1012.0 1012.1 0.2
01/05:30pm 11.2 6.7 6.1 71 2.4 SW 19 24 10 13 1011.5 1011.6 0.2
01/05:00pm 12.0 7.5 6.9 71 2.5 SW 20 30 11 16 1011.1 1011.2 0.2
01/04:30pm 12.3 8.2 8.0 75 2.1 SW 19 28 10 15 1010.9 1011.0 0.2
01/04:00pm 12.9 8.6 7.8 71 2.5 WSW 20 32 11 17 1010.6 1010.7 0.2
01/03:30pm 11.9 7.5 8.9 82 1.5 SW 22 32 12 17 1010.3 1010.4 0.2
01/03:00pm 11.9 7.5 8.9 82 1.5 SW 22 37 12 20 1010.1 1010.2 0.2
01/02:30pm 12.5 7.5 8.2 75 2.1 SW 24 35 13 19 1009.9 1010.0 0.2
01/02:00pm 12.9 8.8 8.6 75 2.2 WSW 20 32 11 17 1009.7 1009.8 0.2
01/01:30pm 12.9 8.4 8.6 75 2.2 WSW 22 32 12 17 1009.8 1009.9 0.2
01/01:00pm 13.1 9.3 9.9 81 1.7 WSW 20 28 11 15 1009.9 1010.0 0.2
01/12:30pm 12.6 9.2 9.1 79 1.8 WSW 17 22 9 12 1009.9 1010.0 0.2
01/12:00pm 12.4 8.2 8.1 75 2.1 WSW 20 32 11 17 1009.8 1009.9 0.2
01/11:30am 12.6 8.6 9.2 80 1.7 SW 20 33 11 18 1010.1 1010.2 0.2
01/11:00am 12.3 8.5 9.1 81 1.6 SW 19 32 10 17 1009.9 1010.0 0.2
01/10:30am 11.2 8.6 9.3 88 1.0 WSW 13 20 7 11 1010.2 1010.3 0.2
01/10:00am 11.8 8.7 9.0 83 1.4 SW 15 24 8 13 1009.9 1010.0 0.0
01/09:30am 12.5 9.4 8.8 78 1.9 SW 15 20 8 11 1009.7 1009.8 0.0
01/09:00am 11.4 8.7 9.0 85 1.2 SW 13 19 7 10 1009.4 1009.5 8.8
01/08:30am 11.0 9.2 9.4 90 0.8 W 9 11 5 6 1009.1 1009.2 8.8
01/08:00am 9.9 7.9 8.7 92 0.6 WSW 9 11 5 6 1008.8 1008.9 8.8
01/07:30am 10.3 8.1 9.2 93 0.5 WSW 11 13 6 7 1008.3 1008.4 8.8
01/07:00am 10.5 7.2 9.4 93 0.6 SW 17 24 9 13 1008.4 1008.5 8.8
01/06:44am 10.5 7.2 9.6 94 0.5 SW 17 24 9 13 1008.1 1008.2 8.8
01/06:34am 10.6 7.4 9.8 95 0.4 SW 17 24 9 13 1008.0 1008.1 8.8
01/06:30am 10.6 7.4 9.8 95 0.4 SW 17 24 9 13 1007.9 1008.0 8.8
01/06:03am 10.9 7.8 10.3 96 0.3 SW 17 24 9 13 1007.5 1007.6 8.8
01/06:00am 11.0 7.9 10.2 95 0.4 SW 17 24 9 13 1007.5 1007.6 8.8
01/05:52am 10.9 7.2 10.1 95 0.4 W 20 28 11 15 1007.5 1007.6 8.8
01/05:41am 10.7 7.5 9.8 94 0.5 WNW 17 22 9 12 1007.3 1007.4 8.2
01/05:30am 10.6 8.1 9.7 94 0.5 NNW 13 17 7 9 1007.0 1007.1 7.6
01/05:00am 10.8 7.3 10.2 96 0.3 WNW 19 26 10 14 1007.0 1007.1 7.6
01/04:30am 10.8 8.5 10.3 97 0.3 NW 13 15 7 8 1006.8 1006.9 7.6
01/04:08am 10.9 9.0 10.4 97 0.3 NW 11 13 6 7 1006.5 1006.6 7.6
01/04:00am 10.9 8.6 10.4 97 0.3 WNW 13 19 7 10 1006.7 1006.8 7.6
01/03:30am 10.9 6.5 10.3 96 0.3 WNW 24 32 13 17 1007.5 1007.6 7.2
01/03:28am 10.9 6.0 10.1 95 0.4 WNW 26 32 14 17 1007.4 1007.5 7.2
01/03:00am 12.0 8.7 11.5 97 0.3 W 20 37 11 20 1007.2 1007.3 6.0
01/02:53am 12.2 9.1 11.7 97 0.3 W 19 26 10 14 1007.1 1007.2 4.2
01/02:30am 12.2 7.8 11.6 96 0.3 WNW 26 35 14 19 1007.2 1007.3 3.4
01/02:25am 12.2 7.8 11.6 96 0.3 WNW 26 35 14 19 1007.3 1007.4 3.4
01/02:19am 12.0 6.7 11.4 96 0.3 WNW 30 39 16 21 1007.3 1007.4 3.0
01/02:00am 11.9 7.2 10.8 93 0.6 WNW 26 39 14 21 1006.3 1006.4 2.6
01/01:32am 11.9 7.4 10.0 88 1.0 NW 24 33 13 18 1007.0 1007.1 1.6
01/01:30am 11.9 7.4 10.0 88 1.0 NW 24 33 13 18 1007.0 1007.1 1.4
01/01:00am 11.9 8.9 9.1 83 1.4 NNW 15 22 8 12 1007.3 1007.4 0.6
01/12:55am 12.2 8.7 8.9 80 1.7 NNW 17 24 9 13 1007.4 1007.5 0.4
01/12:30am 12.4 10.4 8.7 78 1.9 NW 9 13 5 7 1007.2 1007.3 0.0
01/12:00am 13.0 10.1 8.3 73 2.3 W 13 17 7 9 1007.5 1007.6 0.0
 
Date/Time
EST
Temp
°C
App
Temp
°C
Dew
Point
Rel
Hum
%
Delta-T
°C
Wind Press
QNH
hPa
Press
MSL
hPa
Rain
since 9 am
mm
Dir
 
Spd
km/h
Gust
km/h
Spd
kts
Gust
kts
31/11:30pm 12.7 11.1 8.0 73 2.3 NNW 6 7 3 4 1007.2 1007.3 0.0
31/11:00pm 12.8 10.6 7.9 72 2.4 NNW 9 13 5 7 1007.6 1007.7 0.0
31/10:30pm 12.8 12.6 8.9 77 2.0 CALM 0 4 0 2 1007.7 1007.8 0.0
31/10:00pm 13.3 11.3 8.6 73 2.4 N 9 13 5 7 1008.2 1008.3 0.0
31/09:30pm 13.6 12.0 8.9 73 2.4 NNW 7 11 4 6 1008.6 1008.7 0.0
31/09:00pm 14.1 11.5 9.5 74 2.4 WNW 13 17 7 9 1008.9 1009.0 0.0
31/08:30pm 14.3 10.5 9.9 75 2.3 WNW 20 30 11 16 1009.6 1009.7 0.0
31/08:00pm 14.4 10.6 9.0 70 2.8 W 19 24 10 13 1009.6 1009.7 0.0
31/07:30pm 14.6 11.2 9.0 69 2.9 W 17 20 9 11 1009.6 1009.7 0.0
31/07:00pm 15.9 12.3 6.6 54 4.6 WNW 15 19 8 10 1009.6 1009.7 0.0
31/06:30pm 15.0 11.9 7.3 60 3.8 WNW 13 13 7 7 1009.1 1009.2 0.0
31/06:00pm 16.5 13.6 6.3 51 5.0 NNW 11 15 6 8 1008.5 1008.6 0.0
31/05:30pm 17.7 13.9 5.6 45 5.9 NNW 15 20 8 11 1008.9 1009.0 0.0
31/05:00pm 18.1 13.3 5.7 44 6.1 NW 20 30 11 16 1009.6 1009.7 0.0
31/04:30pm 19.0 14.2 5.5 41 6.6 NNW 20 32 11 17 1009.6 1009.7 0.0
31/04:00pm 18.9 14.0 5.0 40 6.8 NNW 20 32 11 17 1009.6 1009.7 0.0
31/03:30pm 19.3 13.5 4.6 38 7.1 NNW 24 35 13 19 1009.5 1009.6 0.0
31/03:00pm 20.1 14.3 4.6 36 7.5 NNW 24 37 13 20 1009.8 1009.9 0.0
31/02:30pm 20.1 14.4 5.0 37 7.4 NNW 24 35 13 19 1010.1 1010.2 0.0
31/02:00pm 20.2 15.2 7.9 45 6.4 N 24 32 13 17 1010.3 1010.4 0.0
31/01:30pm 19.7 15.6 8.7 49 5.8 N 20 32 11 17 1010.9 1011.0 0.0
31/01:00pm 19.4 15.4 8.4 49 5.7 N 19 26 10 14 1011.4 1011.5 0.0
31/12:30pm 18.9 13.8 7.7 48 5.7 N 24 35 13 19 1011.9 1012.0 0.0
31/12:00pm 18.0 14.8 10.1 60 4.2 N 17 22 9 12 1012.5 1012.5 0.0
31/11:30am 18.4 14.8 9.7 57 4.6 N 19 26 10 14 1013.1 1013.1 0.0
31/11:00am 16.7 13.2 8.7 59 4.1 N 17 22 9 12 1013.3 1013.3 0.0
31/10:30am 15.4 11.2 8.2 62 3.6 N 20 26 11 14 1013.7 1013.8 0.0
31/10:00am 14.8 10.7 7.8 63 3.5 N 19 28 10 15 1014.0 1014.1 0.0
31/09:30am 13.4 9.3 7.8 69 2.8 N 19 24 10 13 1014.5 1014.6 0.0
31/09:00am 12.8 8.9 7.3 69 2.7 N 17 22 9 12 1014.7 1014.8 0.2
31/08:30am 12.1 8.2 7.2 72 2.4 N 17 26 9 14 1014.8 1014.9 0.2
31/08:00am 12.0 8.0 6.7 70 2.5 N 17 22 9 12 1015.0 1015.1 0.2
31/07:30am 11.3 7.2 6.4 72 2.3 N 17 20 9 11 1015.1 1015.2 0.2
31/07:00am 10.7 6.6 6.1 73 2.1 N 17 24 9 13 1015.2 1015.3 0.2
31/06:30am 10.9 6.4 6.1 72 2.2 N 19 24 10 13 1015.2 1015.3 0.2
31/06:00am 10.7 7.0 6.1 73 2.1 N 15 20 8 11 1015.1 1015.2 0.2
31/05:30am 10.7 7.0 6.1 73 2.1 N 15 20 8 11 1015.1 1015.2 0.2
31/05:00am 11.1 7.3 6.0 71 2.4 N 15 20 8 11 1015.2 1015.3 0.2
31/04:30am 11.0 7.6 6.0 71 2.3 N 13 17 7 9 1015.3 1015.4 0.2
31/04:00am 11.3 8.0 6.2 71 2.4 N 13 19 7 10 1015.6 1015.7 0.2
31/03:30am 10.8 7.5 6.4 74 2.1 N 13 17 7 9 1015.9 1016.0 0.2
31/03:00am 10.7 7.5 6.8 77 1.8 N 13 17 7 9 1016.1 1016.2 0.2

Other Formats:

Comma delimited format used in spreadsheet applications
http://www.bom.gov.au/fwo/IDV60801/IDV60801.94828.axf

JavaScript Object Notation format (JSON) in row-major order
http://www.bom.gov.au/fwo/IDV60801/IDV60801.94828.json